createdAt,value
2019-04-29T00:00:46.671Z,85.00
2019-04-29T00:03:15.499Z,85.12
2019-04-29T00:05:44.001Z,84.93
2019-04-29T00:08:12.524Z,85.17
2019-04-29T00:10:40.983Z,85.23
2019-04-29T00:13:09.523Z,85.22
2019-04-29T00:15:46.827Z,85.30
2019-04-29T00:18:19.486Z,85.39
2019-04-29T00:20:49.513Z,85.61
2019-04-29T00:23:17.953Z,85.51
2019-04-29T00:25:46.338Z,85.59
2019-04-29T00:28:15.606Z,85.47
2019-04-29T00:30:45.604Z,85.53
2019-04-29T00:33:14.027Z,85.69
2019-04-29T00:35:42.513Z,85.73
2019-04-29T00:38:21.473Z,85.60
2019-04-29T00:40:51.534Z,85.63
2019-04-29T00:43:37.967Z,85.68
2019-04-29T00:46:06.750Z,85.63
2019-04-29T00:48:35.309Z,85.68
2019-04-29T00:51:04.483Z,85.78
2019-04-29T00:53:32.860Z,85.82
2019-04-29T00:56:02.691Z,85.79
2019-04-29T00:58:31.081Z,85.82
2019-04-29T01:00:59.569Z,85.89
2019-04-29T01:03:28.902Z,85.84
2019-04-29T01:05:57.354Z,85.93
2019-04-29T01:08:25.975Z,85.90
2019-04-29T01:10:54.448Z,85.96
2019-04-29T01:13:23.087Z,86.06
2019-04-29T01:15:52.995Z,85.98
2019-04-29T01:18:21.636Z,85.83
2019-04-29T01:20:50.097Z,85.87
2019-04-29T01:23:18.501Z,85.84
2019-04-29T01:25:48.575Z,85.92
2019-04-29T01:28:21.424Z,86.01
2019-04-29T01:30:55.490Z,86.09
2019-04-29T01:33:24.027Z,86.07
2019-04-29T01:35:54.112Z,86.03
2019-04-29T01:38:22.476Z,86.14
2019-04-29T01:41:01.144Z,86.08
2019-04-29T01:43:47.742Z,86.03
2019-04-29T01:46:16.153Z,86.00
2019-04-29T01:48:44.519Z,86.02
2019-04-29T01:51:13.090Z,86.21
2019-04-29T01:53:41.469Z,86.40
2019-04-29T01:56:09.853Z,86.53
2019-04-29T01:58:38.355Z,86.52
2019-04-29T02:01:06.805Z,86.58
2019-04-29T02:03:35.313Z,86.63
2019-04-29T02:06:04.490Z,86.66
2019-04-29T02:08:32.811Z,86.75
2019-04-29T02:11:01.187Z,86.75
2019-04-29T02:13:29.586Z,86.63
2019-04-29T02:15:57.974Z,86.59
2019-04-29T02:18:26.372Z,86.58
2019-04-29T02:20:54.788Z,86.64
2019-04-29T02:23:39.536Z,87.59
2019-04-29T02:26:08.118Z,87.65
2019-04-29T02:28:36.522Z,87.39
2019-04-29T02:31:22.386Z,87.21
2019-04-29T02:33:50.775Z,87.10
2019-04-29T02:36:19.155Z,87.14
2019-04-29T02:38:53.384Z,87.03
2019-04-29T02:41:29.967Z,86.98
2019-04-29T02:43:59.964Z,86.98
2019-04-29T02:46:28.398Z,86.97
2019-04-29T02:48:56.953Z,87.03
2019-04-29T02:51:43.156Z,86.98
2019-04-29T02:54:11.730Z,86.88
2019-04-29T02:56:41.778Z,86.86
2019-04-29T02:59:14.504Z,86.84
2019-04-29T03:01:46.344Z,86.97
2019-04-29T03:04:16.463Z,87.23
2019-04-29T03:06:46.461Z,87.59
2019-04-29T03:09:14.827Z,87.71
2019-04-29T03:11:43.387Z,87.95
2019-04-29T03:14:11.933Z,88.19
2019-04-29T03:16:40.523Z,88.45
2019-04-29T03:19:16.405Z,88.47
2019-04-29T03:21:55.055Z,88.41
2019-04-29T03:24:24.941Z,88.52
2019-04-29T03:26:53.312Z,88.76
2019-04-29T03:29:24.821Z,88.80
2019-04-29T03:31:53.980Z,88.83
2019-04-29T03:34:23.913Z,88.97
2019-04-29T03:36:52.409Z,89.12
2019-04-29T03:39:21.178Z,89.20
2019-04-29T03:41:51.278Z,89.34
2019-04-29T03:44:19.651Z,89.32
2019-04-29T03:46:48.005Z,89.26
2019-04-29T03:49:16.496Z,89.27
2019-04-29T03:51:44.957Z,89.25
2019-04-29T03:54:14.853Z,89.26
2019-04-29T03:56:44.799Z,89.36
2019-04-29T03:59:13.261Z,89.40
2019-04-29T04:01:43.297Z,89.50
2019-04-29T04:04:13.357Z,89.51
2019-04-29T04:06:52.736Z,89.50
2019-04-29T04:09:22.756Z,89.59
2019-04-29T04:11:51.120Z,89.60
2019-04-29T04:14:19.747Z,89.66
2019-04-29T04:17:04.555Z,89.76
2019-04-29T04:19:34.002Z,90.03
2019-04-29T04:22:02.517Z,90.11
2019-04-29T04:24:30.966Z,90.22
2019-04-29T04:26:59.331Z,90.28
2019-04-29T04:29:27.714Z,90.28
2019-04-29T04:31:56.577Z,90.25
2019-04-29T04:34:25.092Z,90.24
2019-04-29T04:36:53.444Z,90.23
2019-04-29T04:39:25.973Z,90.29
2019-04-29T04:41:54.620Z,90.23
2019-04-29T04:44:24.771Z,90.27
2019-04-29T04:46:53.138Z,90.25
2019-04-29T04:49:21.527Z,90.29
2019-04-29T04:51:50.252Z,90.26
2019-04-29T04:54:18.651Z,90.26
2019-04-29T04:56:47.023Z,90.25
2019-04-29T04:59:15.422Z,90.27
2019-04-29T05:01:43.974Z,90.35
2019-04-29T05:04:12.465Z,90.33
2019-04-29T05:06:40.882Z,90.29
2019-04-29T05:09:09.348Z,90.28
2019-04-29T05:11:37.931Z,90.31
2019-04-29T05:14:06.325Z,90.31
2019-04-29T05:16:34.691Z,90.26
2019-04-29T05:19:03.065Z,90.22
2019-04-29T05:21:31.460Z,90.14
2019-04-29T05:23:59.839Z,90.07
2019-04-29T05:26:28.243Z,89.96
2019-04-29T05:28:56.626Z,89.78
2019-04-29T05:31:25.018Z,89.53
2019-04-29T05:33:53.586Z,89.38
2019-04-29T05:36:39.578Z,89.30
2019-04-29T05:39:21.370Z,89.18
2019-04-29T05:41:51.716Z,89.12
2019-04-29T05:44:24.668Z,88.81
2019-04-29T05:47:00.169Z,88.55
2019-04-29T05:49:41.760Z,88.24
2019-04-29T05:52:26.073Z,87.91
2019-04-29T05:54:54.524Z,87.53
2019-04-29T05:57:25.407Z,85.46
2019-04-29T05:59:53.055Z,85.51
2019-04-29T06:02:24.061Z,85.85
2019-04-29T06:04:52.487Z,85.44
2019-04-29T06:07:23.551Z,85.00
2019-04-29T06:09:51.864Z,85.19
2019-04-29T06:12:20.467Z,84.79
2019-04-29T06:14:48.881Z,83.75
2019-04-29T06:17:17.324Z,83.19
2019-04-29T06:19:47.329Z,82.65
2019-04-29T06:22:15.747Z,83.46
2019-04-29T06:24:44.113Z,82.88
2019-04-29T06:27:13.353Z,82.65
2019-04-29T06:29:41.745Z,82.55
2019-04-29T06:32:10.418Z,81.38
2019-04-29T06:34:40.183Z,80.62
2019-04-29T06:37:10.612Z,79.99
2019-04-29T06:39:39.028Z,78.74
2019-04-29T06:42:07.519Z,79.01
2019-04-29T06:44:35.899Z,78.69
2019-04-29T06:47:04.453Z,79.37
2019-04-29T06:49:32.919Z,77.89
2019-04-29T06:52:01.302Z,78.36
2019-04-29T06:54:29.766Z,78.36
2019-04-29T06:56:58.247Z,77.84
2019-04-29T06:59:26.779Z,76.85
2019-04-29T07:01:55.171Z,77.05
2019-04-29T07:04:23.608Z,76.50
2019-04-29T07:06:57.551Z,76.61
2019-04-29T07:09:22.909Z,75.90
2019-04-29T07:11:51.336Z,75.19
2019-04-29T07:14:19.747Z,74.74
2019-04-29T07:16:48.146Z,73.36
2019-04-29T07:19:16.658Z,74.27
2019-04-29T07:21:47.016Z,73.15
2019-04-29T07:24:15.403Z,73.35
2019-04-29T07:26:43.779Z,73.80
2019-04-29T07:29:12.366Z,72.92
2019-04-29T07:31:40.757Z,72.50
2019-04-29T07:34:10.029Z,71.10
2019-04-29T07:36:38.419Z,71.96
2019-04-29T07:39:07.815Z,70.61
2019-04-29T07:41:36.265Z,69.79
2019-04-29T07:44:04.995Z,71.31
2019-04-29T07:46:55.145Z,70.80
2019-04-29T07:49:05.833Z,69.32
2019-04-29T07:51:38.915Z,68.80
2019-04-29T07:54:04.971Z,68.86
2019-04-29T07:56:33.561Z,66.07
2019-04-29T07:59:03.075Z,66.75
2019-04-29T08:01:32.134Z,65.80
2019-04-29T08:04:00.555Z,65.00
2019-04-29T08:06:29.673Z,63.58
2019-04-29T08:09:07.459Z,65.25
2019-04-29T08:11:31.485Z,64.36
2019-04-29T08:14:01.729Z,64.76
2019-04-29T08:16:30.371Z,64.42
2019-04-29T08:18:58.874Z,64.42
2019-04-29T08:21:30.343Z,63.43
2019-04-29T08:23:58.783Z,63.05
2019-04-29T08:26:27.185Z,64.27
2019-04-29T08:29:00.456Z,63.87
2019-04-29T08:31:26.042Z,62.11
2019-04-29T08:33:56.120Z,62.28
2019-04-29T08:36:24.657Z,60.58
2019-04-29T08:38:53.055Z,61.68
2019-04-29T08:41:28.593Z,61.18
2019-04-29T08:43:57.808Z,60.23
2019-04-29T08:46:25.464Z,59.71
2019-04-29T08:48:53.878Z,60.94
2019-04-29T08:51:23.865Z,60.02
2019-04-29T08:53:52.425Z,60.20
2019-04-29T08:56:20.903Z,58.90
2019-04-29T08:58:51.046Z,56.75
2019-04-29T09:01:19.447Z,55.89
2019-04-29T09:03:47.906Z,55.89
2019-04-29T09:06:16.324Z,55.72
2019-04-29T09:08:54.498Z,55.23
2019-04-29T09:11:15.335Z,56.98
2019-04-29T09:13:43.732Z,56.65
2019-04-29T09:16:12.152Z,55.06
2019-04-29T09:18:40.617Z,57.39
2019-04-29T09:21:10.521Z,56.56
2019-04-29T09:23:38.904Z,55.33
2019-04-29T09:26:14.514Z,53.89
2019-04-29T09:28:43.101Z,55.24
2019-04-29T09:31:11.505Z,55.43
2019-04-29T09:33:44.268Z,54.59
2019-04-29T09:36:13.782Z,53.14
2019-04-29T09:38:40.297Z,52.81
2019-04-29T09:41:13.079Z,55.59
2019-04-29T09:43:59.181Z,53.18
2019-04-29T09:46:34.177Z,53.84
2019-04-29T09:49:00.065Z,52.46
2019-04-29T09:51:29.771Z,52.93
2019-04-29T09:53:58.442Z,51.74
2019-04-29T09:56:27.064Z,53.85
2019-04-29T09:59:13.124Z,53.05
2019-04-29T10:01:45.989Z,53.62
2019-04-29T10:04:22.053Z,51.40
2019-04-29T10:06:52.101Z,53.12
2019-04-29T10:09:21.060Z,52.54
2019-04-29T10:11:49.888Z,53.68
2019-04-29T10:14:18.417Z,52.36
2019-04-29T10:16:51.390Z,51.67
2019-04-29T10:19:23.324Z,49.67
2019-04-29T10:21:51.750Z,50.67
2019-04-29T10:24:20.130Z,49.50
2019-04-29T10:26:50.068Z,50.01
2019-04-29T10:29:20.378Z,49.85
2019-04-29T10:31:49.085Z,49.18
2019-04-29T10:34:18.332Z,50.39
2019-04-29T10:36:47.147Z,46.40
2019-04-29T10:39:33.736Z,45.78
2019-04-29T10:42:03.803Z,46.95
2019-04-29T10:44:39.528Z,47.08
2019-04-29T10:47:21.387Z,47.09
2019-04-29T10:49:57.435Z,46.17
2019-04-29T10:52:26.730Z,46.00
2019-04-29T10:54:56.543Z,47.41
2019-04-29T10:57:29.278Z,43.95
2019-04-29T11:00:17.021Z,44.14
2019-04-29T11:02:49.243Z,45.98
2019-04-29T11:05:19.107Z,44.35
2019-04-29T11:07:49.132Z,44.35
2019-04-29T11:10:26.161Z,43.04
2019-04-29T11:12:55.086Z,42.28
2019-04-29T11:15:28.450Z,43.40
2019-04-29T11:17:59.207Z,41.54
2019-04-29T11:20:26.672Z,40.55
2019-04-29T11:23:02.526Z,42.07
2019-04-29T11:25:32.707Z,41.96
2019-04-29T11:28:02.717Z,40.84
2019-04-29T11:30:34.841Z,39.52
2019-04-29T11:33:08.024Z,39.09
2019-04-29T11:35:43.893Z,38.83
2019-04-29T11:38:13.563Z,38.97
2019-04-29T11:40:44.191Z,39.80
2019-04-29T11:43:15.637Z,36.79
2019-04-29T11:45:44.287Z,38.16
2019-04-29T11:48:12.839Z,39.15
2019-04-29T11:50:45.170Z,34.73
2019-04-29T11:53:14.577Z,36.82
2019-04-29T11:55:46.264Z,36.57
2019-04-29T11:58:20.154Z,37.70
2019-04-29T12:01:10.391Z,35.44
2019-04-29T12:03:43.174Z,36.89
2019-04-29T12:06:16.348Z,36.01
2019-04-29T12:08:48.159Z,38.83
2019-04-29T12:11:19.173Z,35.74
2019-04-29T12:13:53.473Z,33.45
2019-04-29T12:16:24.520Z,34.30
2019-04-29T12:19:01.544Z,34.84
2019-04-29T12:21:34.337Z,34.78
2019-04-29T12:24:04.217Z,34.92
2019-04-29T12:26:34.998Z,33.46
2019-04-29T12:29:02.906Z,35.20
2019-04-29T12:31:37.217Z,35.35
2019-04-29T12:34:07.239Z,35.24
2019-04-29T12:36:48.269Z,35.81
2019-04-29T12:39:42.889Z,32.15
2019-04-29T12:42:04.521Z,32.97
2019-04-29T12:44:35.283Z,33.41
2019-04-29T12:47:26.624Z,35.39
2019-04-29T12:49:52.546Z,32.80
2019-04-29T12:52:21.187Z,32.44
2019-04-29T12:54:49.568Z,34.29
2019-04-29T12:57:18.936Z,35.69
2019-04-29T12:59:48.314Z,34.39
2019-04-29T13:02:24.443Z,33.00
2019-04-29T13:05:10.873Z,33.11
2019-04-29T13:07:49.852Z,34.02
2019-04-29T13:10:37.850Z,33.72
2019-04-29T13:13:06.310Z,32.73
2019-04-29T13:15:43.834Z,33.46
2019-04-29T13:18:23.075Z,36.26
2019-04-29T13:20:50.775Z,34.63
2019-04-29T13:23:24.398Z,34.73
2019-04-29T13:25:51.075Z,34.16
2019-04-29T13:28:29.499Z,35.27
2019-04-29T13:30:51.500Z,33.96
2019-04-29T13:33:19.892Z,35.60
2019-04-29T13:35:49.775Z,34.17
2019-04-29T13:38:18.123Z,33.34
2019-04-29T13:40:46.610Z,35.78
2019-04-29T13:43:15.157Z,35.05
2019-04-29T13:45:45.542Z,34.71
2019-04-29T13:48:31.886Z,36.78
2019-04-29T13:51:34.766Z,38.21
2019-04-29T13:53:48.700Z,38.53
2019-04-29T13:56:32.603Z,39.00
2019-04-29T13:58:47.339Z,38.71
2019-04-29T14:01:33.024Z,39.28
2019-04-29T14:03:59.088Z,40.06
2019-04-29T14:06:28.189Z,39.48
2019-04-29T14:08:59.949Z,38.72
2019-04-29T14:11:27.692Z,38.55
2019-04-29T14:13:56.351Z,37.88
2019-04-29T14:16:24.862Z,36.42
2019-04-29T14:18:53.266Z,37.02
2019-04-29T14:21:25.709Z,36.08
2019-04-29T14:23:52.182Z,36.35
2019-04-29T14:26:20.623Z,37.27
2019-04-29T14:28:49.132Z,36.97
2019-04-29T14:31:22.794Z,38.26
2019-04-29T14:34:00.370Z,39.02
2019-04-29T14:36:28.388Z,39.33
2019-04-29T14:38:58.363Z,39.33
2019-04-29T14:41:29.311Z,39.98
2019-04-29T14:44:11.254Z,39.57
2019-04-29T14:46:50.876Z,40.25
2019-04-29T14:49:23.489Z,40.04
2019-04-29T14:51:51.878Z,40.96
2019-04-29T14:54:22.012Z,40.60
2019-04-29T14:56:50.780Z,41.82
2019-04-29T14:59:19.505Z,39.76
2019-04-29T15:01:49.932Z,39.74
2019-04-29T15:04:20.009Z,40.77
2019-04-29T15:06:48.457Z,41.91
2019-04-29T15:09:19.650Z,42.57
2019-04-29T15:11:58.723Z,43.40
2019-04-29T15:14:31.135Z,43.86
2019-04-29T15:17:07.895Z,46.33
2019-04-29T15:19:55.348Z,45.73
2019-04-29T15:22:35.781Z,46.26
2019-04-29T15:25:06.452Z,48.09
2019-04-29T15:27:34.879Z,50.68
2019-04-29T15:30:07.925Z,49.84
2019-04-29T15:32:36.381Z,49.60
2019-04-29T15:35:06.914Z,52.45
2019-04-29T15:37:35.345Z,53.64
2019-04-29T15:40:06.670Z,55.80
2019-04-29T15:42:38.034Z,55.99
2019-04-29T15:45:07.298Z,57.80
2019-04-29T15:47:35.710Z,61.75
2019-04-29T15:50:18.328Z,59.07
2019-04-29T15:52:35.950Z,61.89
2019-04-29T15:55:07.195Z,59.11
2019-04-29T15:57:36.057Z,57.02
2019-04-29T16:00:21.215Z,58.12
2019-04-29T16:02:41.525Z,60.35
2019-04-29T16:05:22.261Z,62.84
2019-04-29T16:07:58.243Z,65.38
2019-04-29T16:10:44.577Z,66.68
2019-04-29T16:13:14.257Z,69.81
2019-04-29T16:15:42.950Z,70.53
2019-04-29T16:18:14.845Z,70.51
2019-04-29T16:20:41.636Z,70.24
2019-04-29T16:23:11.766Z,70.83
2019-04-29T16:25:41.007Z,71.33
2019-04-29T16:28:10.509Z,71.22
2019-04-29T16:30:39.057Z,72.19
2019-04-29T16:33:14.354Z,71.15
2019-04-29T16:35:40.043Z,72.42
2019-04-29T16:40:41.896Z,71.15
2019-04-29T16:43:11.956Z,70.76
2019-04-29T16:48:33.278Z,70.97
2019-04-29T16:51:06.711Z,74.98
2019-04-29T16:53:32.096Z,74.88
2019-04-29T16:56:00.874Z,75.60
2019-04-29T16:58:29.329Z,76.04
2019-04-29T17:00:57.858Z,77.04
2019-04-29T17:03:26.310Z,77.50
2019-04-29T17:05:54.714Z,77.75
2019-04-29T17:08:24.824Z,79.00
2019-04-29T17:11:12.103Z,79.25
2019-04-29T17:13:37.474Z,79.77
2019-04-29T17:16:07.725Z,80.22
2019-04-29T17:18:36.136Z,80.43
2019-04-29T17:21:05.730Z,80.26
2019-04-29T17:23:35.122Z,80.69
2019-04-29T17:26:04.349Z,80.91
2019-04-29T17:28:50.764Z,81.48
2019-04-29T17:31:23.861Z,81.95
2019-04-29T17:33:54.700Z,82.50
2019-04-29T17:35:17.482Z,72.60
2019-04-29T17:36:25.718Z,81.96
2019-04-29T17:38:53.905Z,82.02
2019-04-29T17:41:22.309Z,82.42
2019-04-29T17:43:58.511Z,82.40
2019-04-29T17:46:44.865Z,82.68
2019-04-29T17:49:17.757Z,82.90
2019-04-29T17:51:46.158Z,83.29
2019-04-29T17:54:19.319Z,83.40
2019-04-29T17:57:03.664Z,83.81
2019-04-29T17:59:29.416Z,83.78
2019-04-29T18:01:55.783Z,83.83
2019-04-29T18:04:36.059Z,83.82
2019-04-29T18:07:18.513Z,84.06
2019-04-29T18:09:48.491Z,84.29
2019-04-29T18:12:18.652Z,83.60
2019-04-29T18:14:47.056Z,84.10
2019-04-29T18:17:24.285Z,84.25
2019-04-29T18:20:13.465Z,84.40
2019-04-29T18:22:54.864Z,84.83
2019-04-29T18:25:36.577Z,85.16
2019-04-29T18:28:05.196Z,84.94
2019-04-29T18:30:37.767Z,84.88
2019-04-29T18:33:05.353Z,85.13
2019-04-29T18:35:35.443Z,85.33
2019-04-29T18:38:07.548Z,85.54
2019-04-29T18:40:41.453Z,85.52
2019-04-29T18:43:05.027Z,85.78
2019-04-29T18:45:35.050Z,85.42
2019-04-29T18:48:08.989Z,85.05
2019-04-29T18:50:38.851Z,85.41
2019-04-29T18:53:06.906Z,85.36
2019-04-29T18:55:35.777Z,85.59
2019-04-29T18:58:05.808Z,86.25
2019-04-29T19:00:34.881Z,86.63
2019-04-29T19:03:06.435Z,86.59
2019-04-29T19:05:45.539Z,86.64
2019-04-29T19:08:19.097Z,86.83
2019-04-29T19:10:45.989Z,86.96
2019-04-29T19:13:16.691Z,87.25
2019-04-29T19:15:48.221Z,87.32
2019-04-29T19:18:17.511Z,87.17
2019-04-29T19:20:47.811Z,87.36
2019-04-29T19:23:16.082Z,87.39
2019-04-29T19:25:46.459Z,87.42
2019-04-29T19:28:25.302Z,87.49
2019-04-29T19:30:47.337Z,87.55
2019-04-29T19:33:15.739Z,87.58
2019-04-29T19:35:45.161Z,87.48
2019-04-29T19:38:15.630Z,87.48
2019-04-29T19:40:43.713Z,87.70
2019-04-29T19:43:15.382Z,87.72
2019-04-29T19:45:44.662Z,87.75
2019-04-29T19:48:12.739Z,87.72
2019-04-29T19:50:41.118Z,87.83
2019-04-29T19:53:11.142Z,87.82
2019-04-29T19:55:42.237Z,87.75
2019-04-29T19:58:12.446Z,87.91
2019-04-29T20:00:40.335Z,87.99
2019-04-29T20:03:20.466Z,87.98
2019-04-29T20:05:49.475Z,88.20
2019-04-29T20:08:37.868Z,88.29
2019-04-29T20:10:51.800Z,88.07
2019-04-29T20:13:30.587Z,88.15
2019-04-29T20:15:57.187Z,88.33
2019-04-29T20:18:58.347Z,88.53
2019-04-29T20:21:24.677Z,88.48
2019-04-29T20:23:48.017Z,88.62
2019-04-29T20:26:23.772Z,88.72
2019-04-29T20:28:51.084Z,88.60
2019-04-29T20:31:21.879Z,88.71
2019-04-29T20:33:48.751Z,88.62
2019-04-29T20:36:37.361Z,88.53
2019-04-29T20:38:48.039Z,88.40
2019-04-29T20:41:19.542Z,88.34
2019-04-29T20:43:46.919Z,88.46
2019-04-29T20:46:17.643Z,88.67
2019-04-29T20:48:45.954Z,88.72
2019-04-29T20:51:16.706Z,88.82
2019-04-29T20:53:47.721Z,88.99
2019-04-29T20:56:23.703Z,89.16
2019-04-29T20:58:46.965Z,89.11
2019-04-29T21:01:20.291Z,89.00
2019-04-29T21:03:52.312Z,88.74
2019-04-29T21:06:21.232Z,88.45
2019-04-29T21:08:52.178Z,88.37
2019-04-29T21:11:27.897Z,87.83
2019-04-29T21:14:05.479Z,87.41
2019-04-29T21:16:38.600Z,87.56
2019-04-29T21:19:08.989Z,86.83
2019-04-29T21:21:41.840Z,86.43
2019-04-29T21:24:14.097Z,86.70
2019-04-29T21:26:44.570Z,87.18
2019-04-29T21:29:10.691Z,87.25
2019-04-29T21:31:39.881Z,87.38
2019-04-29T21:34:08.302Z,86.94
2019-04-29T21:36:47.509Z,87.58
2019-04-29T21:39:25.154Z,87.42
2019-04-29T21:42:11.408Z,87.00
2019-04-29T21:44:39.958Z,87.35
2019-04-29T21:47:08.373Z,87.15
2019-04-29T21:49:44.954Z,87.19
2019-04-29T21:52:06.993Z,87.60
2019-04-29T21:54:35.451Z,87.73
2019-04-29T21:57:05.774Z,87.89
2019-04-29T21:59:35.738Z,87.12
2019-04-29T22:02:06.639Z,87.26
2019-04-29T22:04:37.389Z,87.30
2019-04-29T22:07:08.091Z,86.74
2019-04-29T22:09:40.497Z,87.95
2019-04-29T22:12:06.736Z,88.16
2019-04-29T22:14:35.277Z,88.67
2019-04-29T22:17:05.297Z,88.76
2019-04-29T22:19:35.078Z,88.76
2019-04-29T22:22:05.719Z,88.76
2019-04-29T22:24:35.659Z,88.55
2019-04-29T22:27:08.055Z,88.29
2019-04-29T22:29:38.968Z,87.39
2019-04-29T22:32:14.348Z,87.15
2019-04-29T22:34:40.210Z,87.05
2019-04-29T22:37:08.614Z,87.53
2019-04-29T22:39:37.008Z,87.93
2019-04-29T22:42:09.739Z,87.48
2019-04-29T22:44:38.261Z,87.29
2019-04-29T22:47:08.364Z,86.82
2019-04-29T22:49:36.763Z,87.27
2019-04-29T22:52:05.329Z,87.26
2019-04-29T22:54:35.316Z,87.54
2019-04-29T22:57:05.715Z,87.94
2019-04-29T22:59:35.370Z,88.13
2019-04-29T23:02:05.852Z,88.23
2019-04-29T23:04:35.082Z,88.19
2019-04-29T23:07:05.756Z,88.23
2019-04-29T23:09:36.561Z,88.28
2019-04-29T23:12:05.452Z,88.40
2019-04-29T23:14:36.022Z,88.21
2019-04-29T23:17:06.153Z,88.18
2019-04-29T23:19:35.088Z,87.62
2019-04-29T23:22:06.872Z,87.47
2019-04-29T23:24:55.749Z,88.17
2019-04-29T23:27:29.043Z,88.05
2019-04-29T23:29:59.560Z,88.03
2019-04-29T23:32:29.742Z,87.56
2019-04-29T23:35:01.683Z,87.83
2019-04-29T23:37:29.449Z,87.53
2019-04-29T23:39:58.171Z,86.75
2019-04-29T23:42:26.572Z,86.81
2019-04-29T23:44:56.987Z,87.08
2019-04-29T23:47:26.670Z,87.04
2019-04-29T23:49:55.082Z,87.01
2019-04-29T23:52:23.518Z,86.89
2019-04-29T23:54:53.715Z,87.02
2019-04-29T23:57:27.506Z,86.60
